createdAt,value
2023-01-01T00:01:50.446Z,22.90
2023-01-01T00:04:52.135Z,22.70
2023-01-01T00:07:53.788Z,22.30
2023-01-01T00:10:55.389Z,25.40
2023-01-01T00:13:57.040Z,21.50
2023-01-01T00:16:58.693Z,22.20
2023-01-01T00:20:00.432Z,28.20
2023-01-01T00:23:02.132Z,26.00
2023-01-01T00:26:10.471Z,31.90
2023-01-01T00:29:12.224Z,32.30
2023-01-01T00:32:19.071Z,29.90
2023-01-01T00:35:25.219Z,30.10
2023-01-01T00:38:26.883Z,36.30
2023-01-01T00:41:28.532Z,32.90
2023-01-01T00:44:30.357Z,31.70
2023-01-01T00:47:32.020Z,34.60
2023-01-01T00:50:33.662Z,35.20
2023-01-01T00:53:35.851Z,38.00
2023-01-01T00:56:37.456Z,38.50
2023-01-01T00:59:39.083Z,41.50
2023-01-01T01:02:41.070Z,44.90
2023-01-01T01:05:43.017Z,40.70
2023-01-01T01:08:46.478Z,38.60
2023-01-01T01:11:48.181Z,37.80
2023-01-01T01:14:49.735Z,43.60
2023-01-01T01:17:51.782Z,46.50
2023-01-01T01:20:53.947Z,49.70
2023-01-01T01:23:57.485Z,52.50
2023-01-01T01:26:59.083Z,54.70
2023-01-01T01:30:00.783Z,53.00
2023-01-01T01:33:02.585Z,47.70
2023-01-01T01:36:04.996Z,48.60
2023-01-01T01:39:06.549Z,51.50
2023-01-01T01:42:08.259Z,57.80
2023-01-01T01:45:13.824Z,56.10
2023-01-01T01:48:16.124Z,57.50
2023-01-01T01:51:23.183Z,48.20
2023-01-01T01:54:27.495Z,48.20
2023-01-01T01:57:29.463Z,56.10
2023-01-01T02:00:31.209Z,55.70
2023-01-01T02:03:49.332Z,59.10
2023-01-01T02:06:52.005Z,61.00
2023-01-01T02:09:54.062Z,60.50
2023-01-01T02:12:55.828Z,52.10
2023-01-01T02:16:06.602Z,54.50
2023-01-01T02:19:26.325Z,53.80
2023-01-01T02:22:27.889Z,54.20
2023-01-01T02:25:46.413Z,57.80
2023-01-01T02:28:47.989Z,62.90
2023-01-01T02:31:52.896Z,61.30
2023-01-01T02:35:00.179Z,71.80
2023-01-01T02:38:07.998Z,54.80
2023-01-01T02:41:14.150Z,54.20
2023-01-01T02:44:16.372Z,57.80
2023-01-01T02:47:19.115Z,59.40
2023-01-01T02:50:22.499Z,60.70
2023-01-01T02:53:30.265Z,66.30
2023-01-01T02:56:40.434Z,55.70
2023-01-01T03:00:14.344Z,55.80
2023-01-01T03:03:31.278Z,55.50
2023-01-01T03:06:44.701Z,52.20
2023-01-01T03:09:49.206Z,54.30
2023-01-01T03:12:59.887Z,55.80
2023-01-01T03:16:18.881Z,46.50
2023-01-01T03:19:23.274Z,45.40
2023-01-01T03:22:28.158Z,46.80
2023-01-01T03:25:32.627Z,51.50
2023-01-01T03:28:36.929Z,51.90
2023-01-01T03:31:40.600Z,54.50
2023-01-01T03:34:45.622Z,56.90
2023-01-01T03:37:49.223Z,47.50
2023-01-01T03:40:52.860Z,47.30
2023-01-01T03:43:57.570Z,55.00
2023-01-01T03:46:59.532Z,53.40
2023-01-01T03:50:02.553Z,52.60
2023-01-01T03:53:09.931Z,58.40
2023-01-01T03:56:26.817Z,49.60
2023-01-01T04:02:36.265Z,45.30
2023-01-01T04:05:39.507Z,47.20
2023-01-01T04:08:41.191Z,49.20
2023-01-01T04:12:04.090Z,50.90
2023-01-01T04:15:06.559Z,52.00
2023-01-01T04:18:08.338Z,46.20
2023-01-01T04:21:09.908Z,46.90
2023-01-01T04:24:11.524Z,46.60
2023-01-01T04:27:13.099Z,45.80
2023-01-01T04:30:15.396Z,47.70
2023-01-01T04:33:17.003Z,54.00
2023-01-01T04:36:18.710Z,53.50
2023-01-01T04:39:20.294Z,53.50
2023-01-01T04:42:21.799Z,47.20
2023-01-01T04:45:23.385Z,47.20
2023-01-01T04:48:25.654Z,45.50
2023-01-01T04:51:27.220Z,46.70
2023-01-01T04:54:28.780Z,47.60
2023-01-01T04:57:30.967Z,47.10
2023-01-01T05:00:33.633Z,50.20
2023-01-01T05:03:35.183Z,44.80
2023-01-01T05:06:37.657Z,44.90
2023-01-01T05:09:39.259Z,46.50
2023-01-01T05:12:40.732Z,51.70
2023-01-01T05:15:42.268Z,49.40
2023-01-01T05:18:44.391Z,50.90
2023-01-01T05:21:46.655Z,54.40
2023-01-01T05:24:48.308Z,47.10
2023-01-01T05:27:49.913Z,42.80
2023-01-01T05:30:52.296Z,41.40
2023-01-01T05:33:54.460Z,43.20
2023-01-01T05:36:56.372Z,46.20
2023-01-01T05:39:57.997Z,52.40
2023-01-01T05:42:59.531Z,49.40
2023-01-01T05:46:08.805Z,44.20
2023-01-01T05:49:11.609Z,43.30
2023-01-01T05:52:13.294Z,42.00
2023-01-01T05:55:14.863Z,45.40
2023-01-01T05:58:16.445Z,49.10
2023-01-01T06:01:20.508Z,53.40
2023-01-01T06:07:24.090Z,51.10
2023-01-01T06:10:25.671Z,46.30
2023-01-01T06:13:29.168Z,40.60
2023-01-01T06:16:31.321Z,39.50
2023-01-01T06:19:32.972Z,36.50
2023-01-01T06:22:36.663Z,38.90
2023-01-01T06:25:38.204Z,40.00
2023-01-01T06:28:40.067Z,41.80
2023-01-01T06:31:41.742Z,30.70
2023-01-01T06:34:43.272Z,31.40
2023-01-01T06:37:44.852Z,30.80
2023-01-01T06:40:55.706Z,30.70
2023-01-01T06:43:57.936Z,30.80
2023-01-01T06:46:59.521Z,32.80
2023-01-01T06:50:01.519Z,31.80
2023-01-01T06:53:03.155Z,31.30
2023-01-01T06:56:05.037Z,29.30
2023-01-01T06:59:06.674Z,29.60
2023-01-01T07:02:10.518Z,31.90
2023-01-01T07:05:12.168Z,31.00
2023-01-01T07:08:13.875Z,33.40
2023-01-01T07:11:15.611Z,38.60
2023-01-01T07:14:18.722Z,38.20
2023-01-01T07:17:20.321Z,30.60
2023-01-01T07:20:21.973Z,33.40
2023-01-01T07:23:24.122Z,33.40
2023-01-01T07:26:26.360Z,34.90
2023-01-01T07:29:28.085Z,40.40
2023-01-01T07:32:29.783Z,35.50
2023-01-01T07:35:31.455Z,40.90
2023-01-01T07:38:33.071Z,38.00
2023-01-01T07:41:34.808Z,35.20
2023-01-01T07:44:37.926Z,40.90
2023-01-01T07:47:39.618Z,39.20
2023-01-01T07:50:41.332Z,43.10
2023-01-01T07:53:42.928Z,41.70
2023-01-01T07:56:45.884Z,41.70
2023-01-01T07:59:47.469Z,38.50
2023-01-01T08:02:49.198Z,39.20
2023-01-01T08:05:51.011Z,37.40
2023-01-01T08:08:52.607Z,43.80
2023-01-01T08:11:54.276Z,41.50
2023-01-01T08:14:55.983Z,40.60
2023-01-01T08:17:58.378Z,41.20
2023-01-01T08:21:00.040Z,43.30
2023-01-01T08:24:01.700Z,37.90
2023-01-01T08:27:03.370Z,39.90
2023-01-01T08:30:05.227Z,39.00
2023-01-01T08:33:07.052Z,38.10
2023-01-01T08:36:10.820Z,40.30
2023-01-01T08:43:40.983Z,46.60
2023-01-01T08:46:42.765Z,41.80
2023-01-01T08:49:44.664Z,36.60
2023-01-01T08:52:46.587Z,38.50
2023-01-01T08:56:01.471Z,35.70
2023-01-01T08:59:04.607Z,35.30
2023-01-01T09:02:06.777Z,33.50
2023-01-01T09:05:09.012Z,33.20
2023-01-01T09:08:10.659Z,34.30
2023-01-01T09:11:25.541Z,33.60
2023-01-01T09:14:27.157Z,30.80
2023-01-01T09:17:28.675Z,28.60
2023-01-01T09:20:30.438Z,27.60
2023-01-01T09:23:31.989Z,28.30
2023-01-01T09:26:33.587Z,27.10
2023-01-01T09:29:35.082Z,28.40
2023-01-01T09:32:37.788Z,26.20
2023-01-01T09:35:39.335Z,21.50
2023-01-01T09:38:40.884Z,23.40
2023-01-01T09:42:04.098Z,21.10
2023-01-01T09:45:05.690Z,20.40
2023-01-01T09:48:11.778Z,20.60
2023-01-01T09:51:15.686Z,19.90
2023-01-01T09:54:27.263Z,20.00
2023-01-01T09:57:30.517Z,20.40
2023-01-01T10:00:33.381Z,17.90
2023-01-01T10:03:53.452Z,18.20
2023-01-01T10:07:00.799Z,19.30
2023-01-01T10:10:08.234Z,19.60
2023-01-01T10:13:25.185Z,18.80
2023-01-01T10:16:35.995Z,18.70
2023-01-01T10:19:45.656Z,18.70
2023-01-01T10:22:49.677Z,17.90
2023-01-01T10:29:03.345Z,18.40
2023-01-01T10:32:15.154Z,20.10
2023-01-01T10:35:26.884Z,19.60
2023-01-01T10:38:32.380Z,19.70
2023-01-01T10:41:33.951Z,19.50
2023-01-01T10:44:36.689Z,19.80
2023-01-01T10:47:38.218Z,20.80
2023-01-01T10:50:48.816Z,20.40
2023-01-01T10:53:52.304Z,20.60
2023-01-01T10:56:53.844Z,22.80
2023-01-01T11:00:08.952Z,21.70
2023-01-01T11:03:20.300Z,22.90
2023-01-01T11:06:22.231Z,24.50
2023-01-01T11:09:26.631Z,26.70
2023-01-01T11:13:03.649Z,27.90
2023-01-01T11:15:56.210Z,27.00
2023-01-01T11:19:02.217Z,29.50
2023-01-01T11:22:04.868Z,28.80
2023-01-01T11:25:26.969Z,30.70
2023-01-01T11:28:31.561Z,33.80
2023-01-01T11:31:35.943Z,31.60
2023-01-01T11:34:39.303Z,30.40
2023-01-01T11:37:41.737Z,31.80
2023-01-01T11:40:49.225Z,32.20
2023-01-01T11:43:51.006Z,30.70
2023-01-01T11:46:52.618Z,32.40
2023-01-01T11:49:58.503Z,32.80
2023-01-01T11:53:18.186Z,35.20
2023-01-01T11:56:22.831Z,35.50
2023-01-01T11:59:27.558Z,30.90
2023-01-01T12:02:40.710Z,32.00
2023-01-01T12:05:48.859Z,30.70
2023-01-01T12:09:14.675Z,32.40
2023-01-01T12:15:35.380Z,31.60
2023-01-01T12:18:45.013Z,32.70
2023-01-01T12:21:52.769Z,31.30
2023-01-01T12:24:54.997Z,31.10
2023-01-01T12:28:05.585Z,27.50
2023-01-01T12:31:09.981Z,29.60
2023-01-01T12:34:18.889Z,33.40
2023-01-01T12:37:27.022Z,29.10
2023-01-01T12:40:29.913Z,31.50
2023-01-01T12:43:40.553Z,30.50
2023-01-01T12:46:50.148Z,31.20
2023-01-01T12:49:57.604Z,31.90
2023-01-01T12:53:02.542Z,32.20
2023-01-01T12:56:08.487Z,28.40
2023-01-01T12:59:13.948Z,31.30
2023-01-01T13:02:20.843Z,30.30
2023-01-01T13:05:25.681Z,29.30
2023-01-01T13:08:27.367Z,31.00
2023-01-01T13:11:29.326Z,32.40
2023-01-01T13:14:30.956Z,31.00
2023-01-01T13:17:32.508Z,30.90
2023-01-01T13:20:39.992Z,29.30
2023-01-01T13:23:42.173Z,30.80
2023-01-01T13:26:44.745Z,31.80
2023-01-01T13:29:47.367Z,29.60
2023-01-01T13:33:08.919Z,29.90
2023-01-01T13:36:19.588Z,33.80
2023-01-01T13:39:39.679Z,34.50
2023-01-01T13:42:44.624Z,35.80
2023-01-01T13:49:33.849Z,32.90
2023-01-01T13:52:58.289Z,31.80
2023-01-01T13:56:02.826Z,32.20
2023-01-01T13:59:23.146Z,32.30
2023-01-01T14:02:29.833Z,33.30
2023-01-01T14:05:45.788Z,32.70
2023-01-01T14:09:00.381Z,33.00
2023-01-01T14:12:09.200Z,33.50
2023-01-01T14:15:17.022Z,30.90
2023-01-01T14:18:19.183Z,29.40
2023-01-01T14:21:21.908Z,32.90
2023-01-01T14:24:24.363Z,31.00
2023-01-01T14:27:27.476Z,30.10
2023-01-01T14:30:31.297Z,32.20
2023-01-01T14:33:34.040Z,33.20
2023-01-01T14:36:35.576Z,31.70
2023-01-01T14:39:37.351Z,33.10
2023-01-01T14:42:40.201Z,27.00
2023-01-01T14:45:42.585Z,28.60
2023-01-01T14:48:44.955Z,27.90
2023-01-01T14:51:48.784Z,29.60
2023-01-01T14:54:51.200Z,28.90
2023-01-01T14:57:56.494Z,30.90
2023-01-01T15:01:14.642Z,30.10
2023-01-01T15:04:23.844Z,31.50
2023-01-01T15:07:27.057Z,29.30
2023-01-01T15:10:29.544Z,29.20
2023-01-01T15:13:31.158Z,29.40
2023-01-01T15:16:40.044Z,29.40
2023-01-01T15:19:43.475Z,30.90
2023-01-01T15:22:45.194Z,31.40
2023-01-01T15:25:47.278Z,30.60
2023-01-01T15:28:48.868Z,26.90
2023-01-01T15:31:54.159Z,28.90
2023-01-01T15:34:56.850Z,26.70
2023-01-01T15:38:00.536Z,33.00
2023-01-01T15:41:22.151Z,29.20
2023-01-01T15:44:36.610Z,30.90
2023-01-01T15:47:38.810Z,29.80
2023-01-01T15:50:49.984Z,27.70
2023-01-01T15:54:02.086Z,25.90
2023-01-01T15:57:03.847Z,27.90
2023-01-01T16:00:05.525Z,30.40
2023-01-01T16:03:19.732Z,30.00
2023-01-01T16:06:21.970Z,29.60
2023-01-01T16:09:23.677Z,33.70
2023-01-01T16:12:25.337Z,30.50
2023-01-01T16:15:27.174Z,30.10
2023-01-01T16:18:31.623Z,31.10
2023-01-01T16:21:33.749Z,29.20
2023-01-01T16:24:36.425Z,29.60
2023-01-01T16:27:37.981Z,31.70
2023-01-01T16:30:39.622Z,30.80
2023-01-01T16:33:42.479Z,32.30
2023-01-01T16:36:44.933Z,29.80
2023-01-01T16:39:46.567Z,29.70
2023-01-01T16:42:48.156Z,31.80
2023-01-01T16:45:51.180Z,31.00
2023-01-01T16:48:52.891Z,31.90
2023-01-01T16:51:54.513Z,30.40
2023-01-01T16:54:56.293Z,29.90
2023-01-01T16:58:21.165Z,37.90
2023-01-01T17:01:19.991Z,36.30
2023-01-01T17:04:21.638Z,29.80
2023-01-01T17:07:23.179Z,32.00
2023-01-01T17:10:24.714Z,27.40
2023-01-01T17:13:27.428Z,27.80
2023-01-01T17:16:34.380Z,28.90
2023-01-01T17:19:38.062Z,29.00
2023-01-01T17:22:39.851Z,27.40
2023-01-01T17:25:41.394Z,27.00
2023-01-01T17:28:43.644Z,26.50
2023-01-01T17:31:45.263Z,28.60
2023-01-01T17:34:46.882Z,34.30
2023-01-01T17:37:48.444Z,35.10
2023-01-01T17:40:50.052Z,31.10
2023-01-01T17:43:52.208Z,30.70
2023-01-01T17:51:23.363Z,29.00
2023-01-01T17:54:24.958Z,25.50
2023-01-01T17:57:28.979Z,26.80
2023-01-01T18:00:31.121Z,27.30
2023-01-01T18:03:32.770Z,28.90
2023-01-01T18:06:40.659Z,28.30
2023-01-01T18:09:43.700Z,29.50
2023-01-01T18:12:45.283Z,27.70
2023-01-01T18:15:47.089Z,29.50
2023-01-01T18:18:49.052Z,25.50
2023-01-01T18:21:50.616Z,28.20
2023-01-01T18:24:52.238Z,26.30
2023-01-01T18:27:57.432Z,27.40
2023-01-01T18:31:05.373Z,30.10
2023-01-01T18:34:07.184Z,28.00
2023-01-01T18:37:08.756Z,30.10
2023-01-01T18:40:14.790Z,25.60
2023-01-01T18:43:19.530Z,28.00
2023-01-01T18:46:23.533Z,27.10
2023-01-01T18:49:25.666Z,29.80
2023-01-01T18:52:27.762Z,28.90
2023-01-01T18:55:30.811Z,28.60
2023-01-01T18:58:32.881Z,27.90
2023-01-01T19:01:35.514Z,28.60
2023-01-01T19:04:37.420Z,25.10
2023-01-01T19:07:38.933Z,28.10
2023-01-01T19:10:43.162Z,28.40
2023-01-01T19:13:44.893Z,27.70
2023-01-01T19:16:47.700Z,27.30
2023-01-01T19:19:49.397Z,27.10
2023-01-01T19:22:51.008Z,28.40
2023-01-01T19:25:52.815Z,29.90
2023-01-01T19:28:59.858Z,31.20
2023-01-01T19:32:01.462Z,29.70
2023-01-01T19:35:03.734Z,29.90
2023-01-01T19:38:05.553Z,28.10
2023-01-01T19:41:07.928Z,28.90
2023-01-01T19:44:10.573Z,26.80
2023-01-01T19:47:14.021Z,28.40
2023-01-01T19:50:15.804Z,25.20
2023-01-01T19:53:17.390Z,27.00
2023-01-01T19:56:19.248Z,27.10
2023-01-01T19:59:20.921Z,27.80
2023-01-01T20:05:43.932Z,24.90
2023-01-01T20:08:45.534Z,28.60
2023-01-01T20:11:50.669Z,26.10
2023-01-01T20:14:53.879Z,25.00
2023-01-01T20:17:55.571Z,26.60
2023-01-01T20:21:19.178Z,26.70
2023-01-01T20:24:25.833Z,25.20
2023-01-01T20:27:27.753Z,25.50
2023-01-01T20:30:29.372Z,23.20
2023-01-01T20:33:30.862Z,23.50
2023-01-01T20:36:50.810Z,25.10
2023-01-01T20:39:52.406Z,27.70
2023-01-01T20:42:54.100Z,26.20
2023-01-01T20:45:55.808Z,26.80
2023-01-01T20:48:57.813Z,27.30
2023-01-01T20:51:59.366Z,25.00
2023-01-01T20:55:00.948Z,24.70
2023-01-01T20:58:02.493Z,24.50
2023-01-01T21:01:04.205Z,24.90
2023-01-01T21:04:05.836Z,26.70
2023-01-01T21:07:08.449Z,27.40
2023-01-01T21:10:10.120Z,26.10
2023-01-01T21:13:11.728Z,24.00
2023-01-01T21:16:16.374Z,24.90
2023-01-01T21:19:24.351Z,25.20
2023-01-01T21:22:28.153Z,26.90
2023-01-01T21:25:52.869Z,26.40
2023-01-01T21:28:54.589Z,25.90
2023-01-01T21:32:16.415Z,22.20
2023-01-01T21:35:27.104Z,22.40
2023-01-01T21:38:31.464Z,24.60
2023-01-01T21:41:34.315Z,24.30
2023-01-01T21:44:36.015Z,24.20
2023-01-01T21:47:38.758Z,24.60
2023-01-01T21:50:41.204Z,22.60
2023-01-01T21:53:42.872Z,23.90
2023-01-01T21:56:56.296Z,25.00
2023-01-01T21:59:57.889Z,25.30
2023-01-01T22:02:59.469Z,24.00
2023-01-01T22:06:05.403Z,25.30
2023-01-01T22:09:27.214Z,24.70
2023-01-01T22:12:29.981Z,24.50
2023-01-01T22:15:41.296Z,25.30
2023-01-01T22:18:43.232Z,23.40
2023-01-01T22:21:46.226Z,25.00
2023-01-01T22:24:58.870Z,24.50
2023-01-01T22:28:06.159Z,24.10
2023-01-01T22:31:10.602Z,25.50
2023-01-01T22:34:19.311Z,24.40
2023-01-01T22:37:22.069Z,23.10
2023-01-01T22:40:50.106Z,24.20
2023-01-01T22:43:53.332Z,23.70
2023-01-01T22:46:58.698Z,25.40
2023-01-01T22:50:01.224Z,25.60
2023-01-01T22:53:02.774Z,24.40
2023-01-01T22:56:04.398Z,25.30
2023-01-01T22:59:05.982Z,23.10
2023-01-01T23:02:08.058Z,23.50
2023-01-01T23:05:10.037Z,24.00
2023-01-01T23:08:11.617Z,24.80
2023-01-01T23:11:13.335Z,25.10
2023-01-01T23:14:38.612Z,25.40
2023-01-01T23:17:40.767Z,26.30
2023-01-01T23:20:42.283Z,22.80
2023-01-01T23:23:44.459Z,23.30
2023-01-01T23:26:46.787Z,24.00
2023-01-01T23:29:49.204Z,24.80
2023-01-01T23:32:50.875Z,23.80
2023-01-01T23:35:52.893Z,27.90
2023-01-01T23:38:54.644Z,27.40
2023-01-01T23:41:56.454Z,25.20
2023-01-01T23:44:58.095Z,23.40
2023-01-01T23:47:59.618Z,24.20
2023-01-01T23:51:01.315Z,24.00
2023-01-01T23:54:02.879Z,23.60
2023-01-01T23:57:04.761Z,23.20
